This is the latest recevied weather packets stored in our database for station/object DO7CRZ-11. If no packets are shown the sender has not sent any weather packets the latest 10 day(s).
| Time | Temp. | Humidity | Pressure | Rain* | Wind** | Luminosity | Snow |
|---|---|---|---|---|---|---|---|
| 1777809136 | 26.67° C | 29% | 1015.4 hPa | 0 mm | - | 679 W/m² | - |
| 1777807933 | 26.11° C | 29% | 1015.6 hPa | 0 mm | - | 677 W/m² | - |
| 1777807333 | 26.11° C | 28% | 1015.7 hPa | 0 mm | - | 688 W/m² | - |
| 1777806132 | 25.56° C | 29% | 1015.9 hPa | 0 mm | - | 693 W/m² | - |
| 1777805533 | 25.56° C | 29% | 1015.9 hPa | 0 mm | - | 712 W/m² | - |
| 1777804929 | 25.56° C | 30% | 1015.8 hPa | 0 mm | - | 705 W/m² | - |
| 1777804331 | 25.56° C | 30% | 1015.9 hPa | 0 mm | - | 694 W/m² | - |
| 1777803733 | 25.56° C | 30% | 1016.1 hPa | 0 mm | - | 690 W/m² | - |
| 1777803126 | 25° C | 30% | 1016.2 hPa | 0 mm | - | 677 W/m² | - |
| 1777802530 | 25° C | 30% | 1016.2 hPa | 0 mm | - | 684 W/m² | - |
| 1777801933 | 25° C | 30% | 1016.3 hPa | 0 mm | - | 670 W/m² | - |
| 1777801326 | 24.44° C | 30% | 1016.3 hPa | 0 mm | - | 669 W/m² | - |
| 1777800729 | 24.44° C | 30% | 1016.3 hPa | 0 mm | - | 610 W/m² | - |
| 1777800132 | 24.44° C | 31% | 1016.4 hPa | 0 mm | - | 626 W/m² | - |
| 1777799535 | 24.44° C | 31% | 1016.5 hPa | 0 mm | - | 640 W/m² | - |
| 1777798928 | 24.44° C | 32% | 1016.5 hPa | 0 mm | - | 617 W/m² | - |
| 1777798332 | 23.89° C | 32% | 1016.4 hPa | 0 mm | - | 605 W/m² | - |
| 1777797740 | 23.33° C | 32% | 1016.6 hPa | 0 mm | - | 590 W/m² | - |
| 1777797128 | 23.33° C | 32% | 1016.5 hPa | 0 mm | - | 579 W/m² | - |
| 1777796532 | 23.33° C | 32% | 1016.5 hPa | 0 mm | - | 550 W/m² | - |
| 1777795935 | 22.78° C | 33% | 1016.5 hPa | 0 mm | - | 514 W/m² | - |
| 1777794736 | 22.22° C | 33% | 1016.6 hPa | 0 mm | - | 493 W/m² | - |
| 1777794137 | 21.67° C | 35% | 1016.6 hPa | 0 mm | - | 476 W/m² | - |
| 1777792930 | 21.11° C | 36% | 1016.4 hPa | 0 mm | - | 329 W/m² | - |
| 1777792332 | 20.56° C | 37% | 1016.4 hPa | 0 mm | - | 317 W/m² | - |
* Rain latest hour (hover to see other rain measurements)
** Current wind speed in m/s (hover to see current wind gust speed)